Terminal Aerodrome Forecast
Issued by NWS Pocatello, ID

Home | Current Version | Previous Version | Text Only | Print | Product List | Glossary On
Versions: 1 2 3 4 5 6 7 8 9 10 11 12 13 14 15 16
000
FTUS45 KPIH 211100
TAFBYI
TAF
KBYI 211120Z 2112/2212 VRB06KT P6SM VCSH SCT070 OVC100
     FM211500 VRB05KT P6SM BKN110 BKN160
     FM211700 25006KT P6SM VCTS SCT060CB BKN100
     FM220300 VRB05KT P6SM BKN090 BKN150=

USA.gov is the U.S. government's official web portal to all federal, state and local government web resources and services.